Babinda, Australia
Current Conditions -  °F | °C
As of 8:30 AM on Thursday 23 Oct 2014 (Local Time) from YBCS Reporting Station
Few Clouds Few Clouds  
Wind Chill: 79°   Ceiling: Unl
Heat Index: 80°   Visibility: 6mi
Dew Point: 61°   Wind: 17mph
Humidity: 54%   Direction: 150°SSE
Pressure: 30.06"   Gusts: NA
Location:  17.35°S, 145.92°E
Report Text: YBCS 222230Z 15015KT 9999 FEW032 26/16 Q1018
Loading
Personal Weather Stations






























Interactive Weather Map
Tropical Storm Tracking
New forecast layout! Learn more

10-Day Weather Forecast

Advertisements
Track Severe Weather on mobile